(°C)
(°C)
ZSZ
Z
Z
ZJZ
Z
Z
ZSZ
(km/h)
12-18
10-14
8-14
7-13
6-12
7-12
7-13
(mm)
0
0
0
0
0
0
0
(%)
19
23
13
12
6
1
1

Podizanje Sunca

/ 9.2°
sun-icon
UV 0
07:21
16:04
Star mesec (334°)
04:40
14:51

METAR za Аеродром Беч (LOWW)

Vreme Uslovi Temperatura/
Tačka rose
Vetar Vidljivost Prognoza Oblaci Pritisak Promena Neobrađeno
VFR 7°C / 4°C 240º 6kt >10km - Few Clouds 3200ft
Scattered Clouds 5000ft
999 No Significant change LOWW 021320Z 24006KT 9999 FEW032 SCT050 07/04 Q0999 NOSIG
VFR 8°C / 3°C 270º 8kt >10km - Few Clouds 2800ft
Broken Clouds 4800ft
1000 No Significant change LOWW 021250Z 27008KT 9999 FEW028 BKN048 08/03 Q1000 NOSIG
VFR 7°C / 4°C 240º 7kt >10km Light Rain 1.00mm precipitation Vertical Visibility of 0ft.
Broken Clouds 4800ft
1000 No Significant change LOWW 021220Z 24007KT 9999 -RA FEW030 BKN048 07/04 Q1000 NOSIG
VFR 7°C / 4°C 250º variable 230º to 040º 9kt >10km Light Rain 1.00mm precipitation Vertical Visibility of 0ft.
Broken Clouds 4600ft
1000 No Significant change LOWW 021150Z 25009KT 230V040 9999 -RA FEW024 BKN046 07/04 Q1000 NOSIG
VFR 8°C / 3°C 280º 12kt >10km Light Rain 1.00mm precipitation Vertical Visibility of 0ft.
Scattered Clouds 3200ft
Broken Clouds 4600ft
1000 No Significant change LOWW 021120Z 28012KT 9999 -RA FEW028 SCT032 BKN046 08/03 Q1000 NOSIG
VFR 8°C / 3°C 280º 10kt >10km Light Rain 1.00mm precipitation Vertical Visibility of 0ft.
Scattered Clouds 3400ft
Broken Clouds 4800ft
1000 No Significant change LOWW 021050Z 28010KT 9999 -RA FEW030 SCT034 BKN048 08/03 Q1000 NOSIG
VFR 8°C / 3°C 290º 11kt >10km Light Rain 1.00mm precipitation Vertical Visibility of 0ft.
Scattered Clouds 3600ft
Broken Clouds 4000ft
1000 No Significant change LOWW 021020Z 29011KT 9999 -RA FEW032 SCT036 BKN040 08/03 Q1000 NOSIG
VFR 8°C / 4°C 220º 8kt >10km Light Rain 1.00mm precipitation Vertical Visibility of 0ft.
Scattered Clouds 4000ft
Broken Clouds 4800ft
1000 No Significant change LOWW 020950Z 22008KT 9999 -RA FEW032 SCT040 BKN048 08/04 Q1000 NOSIG
VFR 9°C / 3°C 260º 7kt >10km Light Rain 1.00mm precipitation Vertical Visibility of 0ft.
Broken Clouds 4400ft
1000 No Significant change LOWW 020920Z 26007KT 9999 -RA FEW036 BKN044 09/03 Q1000 NOSIG
VFR 9°C / 2°C 250º 6kt >10km Light Rain 1.00mm precipitation Vertical Visibility of 0ft.
Scattered Clouds 4600ft
Broken Clouds 5000ft
1000 No Significant change LOWW 020850Z 25006KT 9999 -RA FEW042 SCT046 BKN050 09/02 Q1000 NOSIG
VFR 8°C / 2°C 230º 4kt >10km - Few Clouds 5000ft 1000 No Significant change LOWW 020820Z 23004KT 9999 FEW050 08/02 Q1000 NOSIG
VFR 8°C / 2°C 240º 4kt >10km - Few Clouds 3800ft 1000 No Significant change LOWW 020750Z 24004KT 9999 FEW038 08/02 Q1000 NOSIG
VFR 8°C / 1°C 260º variable 240º to 300º 4kt >10km - Few Clouds 3800ft 1000 No Significant change LOWW 020720Z 26004KT 240V300 9999 FEW038 08/01 Q1000 NOSIG
VFR 8°C / 2°C 250º 4kt >10km - Few Clouds 4400ft 999 No Significant change LOWW 020650Z 25004KT 9999 FEW044 08/02 Q0999 NOSIG
VFR 9°C / 1°C 260º 5kt >10km - Few Clouds 4400ft 999 No Significant change LOWW 020620Z 26005KT 9999 FEW044 09/01 Q0999 NOSIG
VFR 8°C / 1°C 260º 4kt >10km - Few Clouds 4400ft 999 No Significant change LOWW 020550Z 26004KT 9999 FEW044 08/01 Q0999 NOSIG
VFR 9°C / 2°C 280º 9kt >10km - Few Clouds 4700ft 999 No Significant change LOWW 020520Z 28009KT 9999 FEW047 09/02 Q0999 NOSIG
VFR 9°C / 2°C 270º 9kt >10km - Few Clouds 4700ft 999 No Significant change LOWW 020450Z 27009KT 9999 FEW047 09/02 Q0999 NOSIG
VFR 8°C / 2°C 250º variable 220º to 280º 7kt >10km - Scattered Clouds 4700ft 999 No Significant change LOWW 020420Z 25007KT 220V280 9999 SCT047 08/02 Q0999 NOSIG
VFR 8°C / 2°C 210º 5kt >10km - Scattered Clouds 4400ft 999 No Significant change LOWW 020350Z 21005KT 9999 SCT044 08/02 Q0999 NOSIG
VFR 8°C / 2°C 240º 5kt >10km - Few Clouds 4400ft 999 No Significant change LOWW 020320Z 24005KT 9999 FEW044 08/02 Q0999 NOSIG
VFR 9°C / 2°C 230º 4kt >10km - Few Clouds 4400ft 999 No Significant change LOWW 020250Z 23004KT 9999 FEW044 09/02 Q0999 NOSIG
VFR 10°C / 2°C 230º variable 200º to 270º 5kt >10km - Scattered Clouds 4400ft 999 No Significant change LOWW 020220Z 23005KT 200V270 9999 SCT044 10/02 Q0999 NOSIG
VFR 9°C / 2°C 260º variable 230º to 290º 5kt >10km - Few Clouds 4200ft
Scattered Clouds 4400ft
999 No Significant change LOWW 020150Z 26005KT 230V290 9999 FEW042 SCT044 09/02 Q0999 NOSIG

VFR

7°C / 4°C

[Više]
Vetar 240º 6kt
Vidljivost >10km
Prognoza -
Oblaci Few Clouds 3200ft
Scattered Clouds 5000ft
Pritisak 999
Promena No Significant change
Neobrađeno LOWW 021320Z 24006KT 9999 FEW032 SCT050 07/04 Q0999 NOSIG

VFR

8°C / 3°C

[Više]
Vetar 270º 8kt
Vidljivost >10km
Prognoza -
Oblaci Few Clouds 2800ft
Broken Clouds 4800ft
Pritisak 1000
Promena No Significant change
Neobrađeno LOWW 021250Z 27008KT 9999 FEW028 BKN048 08/03 Q1000 NOSIG

VFR

7°C / 4°C

[Više]
Vetar 240º 7kt
Vidljivost >10km
Prognoza Light Rain 1.00mm precipitation
Oblaci Vertical Visibility of 0ft.
Broken Clouds 4800ft
Pritisak 1000
Promena No Significant change
Neobrađeno LOWW 021220Z 24007KT 9999 -RA FEW030 BKN048 07/04 Q1000 NOSIG

VFR

7°C / 4°C

[Više]
Vetar 250º variable 230º to 040º 9kt
Vidljivost >10km
Prognoza Light Rain 1.00mm precipitation
Oblaci Vertical Visibility of 0ft.
Broken Clouds 4600ft
Pritisak 1000
Promena No Significant change
Neobrađeno LOWW 021150Z 25009KT 230V040 9999 -RA FEW024 BKN046 07/04 Q1000 NOSIG

VFR

8°C / 3°C

[Više]
Vetar 280º 12kt
Vidljivost >10km
Prognoza Light Rain 1.00mm precipitation
Oblaci Vertical Visibility of 0ft.
Scattered Clouds 3200ft
Broken Clouds 4600ft
Pritisak 1000
Promena No Significant change
Neobrađeno LOWW 021120Z 28012KT 9999 -RA FEW028 SCT032 BKN046 08/03 Q1000 NOSIG

VFR

8°C / 3°C

[Više]
Vetar 280º 10kt
Vidljivost >10km
Prognoza Light Rain 1.00mm precipitation
Oblaci Vertical Visibility of 0ft.
Scattered Clouds 3400ft
Broken Clouds 4800ft
Pritisak 1000
Promena No Significant change
Neobrađeno LOWW 021050Z 28010KT 9999 -RA FEW030 SCT034 BKN048 08/03 Q1000 NOSIG

VFR

8°C / 3°C

[Više]
Vetar 290º 11kt
Vidljivost >10km
Prognoza Light Rain 1.00mm precipitation
Oblaci Vertical Visibility of 0ft.
Scattered Clouds 3600ft
Broken Clouds 4000ft
Pritisak 1000
Promena No Significant change
Neobrađeno LOWW 021020Z 29011KT 9999 -RA FEW032 SCT036 BKN040 08/03 Q1000 NOSIG

VFR

8°C / 4°C

[Više]
Vetar 220º 8kt
Vidljivost >10km
Prognoza Light Rain 1.00mm precipitation
Oblaci Vertical Visibility of 0ft.
Scattered Clouds 4000ft
Broken Clouds 4800ft
Pritisak 1000
Promena No Significant change
Neobrađeno LOWW 020950Z 22008KT 9999 -RA FEW032 SCT040 BKN048 08/04 Q1000 NOSIG

VFR

9°C / 3°C

[Više]
Vetar 260º 7kt
Vidljivost >10km
Prognoza Light Rain 1.00mm precipitation
Oblaci Vertical Visibility of 0ft.
Broken Clouds 4400ft
Pritisak 1000
Promena No Significant change
Neobrađeno LOWW 020920Z 26007KT 9999 -RA FEW036 BKN044 09/03 Q1000 NOSIG

VFR

9°C / 2°C

[Više]
Vetar 250º 6kt
Vidljivost >10km
Prognoza Light Rain 1.00mm precipitation
Oblaci Vertical Visibility of 0ft.
Scattered Clouds 4600ft
Broken Clouds 5000ft
Pritisak 1000
Promena No Significant change
Neobrađeno LOWW 020850Z 25006KT 9999 -RA FEW042 SCT046 BKN050 09/02 Q1000 NOSIG

VFR

8°C / 2°C

[Više]
Vetar 230º 4kt
Vidljivost >10km
Prognoza -
Oblaci Few Clouds 5000ft
Pritisak 1000
Promena No Significant change
Neobrađeno LOWW 020820Z 23004KT 9999 FEW050 08/02 Q1000 NOSIG

VFR

8°C / 2°C

[Više]
Vetar 240º 4kt
Vidljivost >10km
Prognoza -
Oblaci Few Clouds 3800ft
Pritisak 1000
Promena No Significant change
Neobrađeno LOWW 020750Z 24004KT 9999 FEW038 08/02 Q1000 NOSIG

VFR

8°C / 1°C

[Više]
Vetar 260º variable 240º to 300º 4kt
Vidljivost >10km
Prognoza -
Oblaci Few Clouds 3800ft
Pritisak 1000
Promena No Significant change
Neobrađeno LOWW 020720Z 26004KT 240V300 9999 FEW038 08/01 Q1000 NOSIG

VFR

8°C / 2°C

[Više]
Vetar 250º 4kt
Vidljivost >10km
Prognoza -
Oblaci Few Clouds 4400ft
Pritisak 999
Promena No Significant change
Neobrađeno LOWW 020650Z 25004KT 9999 FEW044 08/02 Q0999 NOSIG

VFR

9°C / 1°C

[Više]
Vetar 260º 5kt
Vidljivost >10km
Prognoza -
Oblaci Few Clouds 4400ft
Pritisak 999
Promena No Significant change
Neobrađeno LOWW 020620Z 26005KT 9999 FEW044 09/01 Q0999 NOSIG

VFR

8°C / 1°C

[Više]
Vetar 260º 4kt
Vidljivost >10km
Prognoza -
Oblaci Few Clouds 4400ft
Pritisak 999
Promena No Significant change
Neobrađeno LOWW 020550Z 26004KT 9999 FEW044 08/01 Q0999 NOSIG

VFR

9°C / 2°C

[Više]
Vetar 280º 9kt
Vidljivost >10km
Prognoza -
Oblaci Few Clouds 4700ft
Pritisak 999
Promena No Significant change
Neobrađeno LOWW 020520Z 28009KT 9999 FEW047 09/02 Q0999 NOSIG

VFR

9°C / 2°C

[Više]
Vetar 270º 9kt
Vidljivost >10km
Prognoza -
Oblaci Few Clouds 4700ft
Pritisak 999
Promena No Significant change
Neobrađeno LOWW 020450Z 27009KT 9999 FEW047 09/02 Q0999 NOSIG

VFR

8°C / 2°C

[Više]
Vetar 250º variable 220º to 280º 7kt
Vidljivost >10km
Prognoza -
Oblaci Scattered Clouds 4700ft
Pritisak 999
Promena No Significant change
Neobrađeno LOWW 020420Z 25007KT 220V280 9999 SCT047 08/02 Q0999 NOSIG

VFR

8°C / 2°C

[Više]
Vetar 210º 5kt
Vidljivost >10km
Prognoza -
Oblaci Scattered Clouds 4400ft
Pritisak 999
Promena No Significant change
Neobrađeno LOWW 020350Z 21005KT 9999 SCT044 08/02 Q0999 NOSIG

VFR

8°C / 2°C

[Više]
Vetar 240º 5kt
Vidljivost >10km
Prognoza -
Oblaci Few Clouds 4400ft
Pritisak 999
Promena No Significant change
Neobrađeno LOWW 020320Z 24005KT 9999 FEW044 08/02 Q0999 NOSIG

VFR

9°C / 2°C

[Više]
Vetar 230º 4kt
Vidljivost >10km
Prognoza -
Oblaci Few Clouds 4400ft
Pritisak 999
Promena No Significant change
Neobrađeno LOWW 020250Z 23004KT 9999 FEW044 09/02 Q0999 NOSIG

VFR

10°C / 2°C

[Više]
Vetar 230º variable 200º to 270º 5kt
Vidljivost >10km
Prognoza -
Oblaci Scattered Clouds 4400ft
Pritisak 999
Promena No Significant change
Neobrađeno LOWW 020220Z 23005KT 200V270 9999 SCT044 10/02 Q0999 NOSIG

VFR

9°C / 2°C

[Više]
Vetar 260º variable 230º to 290º 5kt
Vidljivost >10km
Prognoza -
Oblaci Few Clouds 4200ft
Scattered Clouds 4400ft
Pritisak 999
Promena No Significant change
Neobrađeno LOWW 020150Z 26005KT 230V290 9999 FEW042 SCT044 09/02 Q0999 NOSIG

TAF za Аеродром Беч (LOWW)

From till


Maximum Temperature 8ºC on . Minimum Temperature 0ºC on .
From till Wind 280º 10kt. Visibility 10km or more. Broken Clouds 4000ft.
Temporarly from till Light Rain .
Becoming from till Wind 320º 12kt. Visibility 10km or more. Broken Clouds 4000ft.
Temporarly from till Wind 330º 15kt. Gust 25kt.
From till Wind 230º 5kt. Visibility 10km or more. Nil Significant Cloud.

Neobrađeno: TAF LOWW 021115Z 0212/0318 28010KT 9999 BKN040 TX08/0212Z TN00/0318Z TEMPO 0212/0216 -RA BECMG 0220/0222 32012KT TEMPO 0302/0312 33015G25KT FM031700 23005KT CAVOK

Trenutni satelitski snimci i slike kiše za Аеродром Беч, Аустрија

Marker lokacije postavljen je na Аеродром Беч. [Više]

Satelitski snimci u realnom vremenu kombinuju vidljivu svetlost tokom dana sa infracrvenim zračenjem tokom noći. Noću slika nije tamna jer infracrveno zračenje može otkriti temperaturne razlike. Nažalost, niski oblaci i magla teško se mogu razlikovati od temperature zemlje tako da mogu biti skoro nevidljivi tokom noći. Meteosat satelitski snimci za Evropu se ažuriraju u realnom vremenu na svakih 5 minuta. Slnimci GOES-16/GOES-17 (Severna i Južna Amerika) and Himawari (Azia) ažuriraju se na svakih 10 minuta.

Padavine su procenjene na osnovu radara i satelita. U noćnim uslovima satelitske procene padavina su manje precizne od dnevnih. Narandžasti preseci obeležavaju mesta gde je munja otkrivena (preko Evropa).

Autorsko pravo 2021 EUMETSAT / meteoblue. Podaci za munje obezbeđeni od nowcast.

Radar i padavine kratka prognoza za Аеродром Беч

Rominjati
Lak
Umjereno
Teška
Vrlo teško
Zdravo

Marker lokacije postavljen je na Аеродром Беч. Ova animacija prikazuje radar padavina za poslednji sat, kao i 1h prognozu. Kiša ili slab snijeg mogu biti nevidljivi za radar. Intenzitet padavina je označen bojom, u rasponu od svetloplave do narandžaste.